Legend Of The Seas — C6SL5 — position and weather

sailwx.info

Track history (hours):
 
Tides and Currents Weather Stations Pressure Air Temp Water Temp Dewpoint Dewpoint Depression Visibility Wind Speed Wind Dir Waves Ship Positions

Legend Of The Seas

Operator: Royal Caribbean Cruises Ltd

Last reported at 2018-Feb-18 01:25 UTC. Time now 2018-Feb-22 10:46 UTC.
Position N 09°35' W 079°58'.

Type: Passenger vessel. MMSI: 311378000.

Date/timePositionNaut miles runAvg speedWind from/ knotsBaromVisibWave heightAir tempDewpointWater temp
2018-Feb-18 01:25N 09°35' W 079°58'713.8
2018-Feb-18 00:54N 09°29' W 079°55'513.7
2018-Feb-18 00:30N 09°24' W 079°54'2 3.4
2018-Feb-17 23:58N 09°22' W 079°54'0 0.0
2018-Feb-17 23:28N 09°22' W 079°54'0 0.0
2018-Feb-17 22:58N 09°22' W 079°54'0 0.0
2018-Feb-17 22:28N 09°22' W 079°54'0 0.0
2018-Feb-17 21:58N 09°22' W 079°54'0 0.0
2018-Feb-17 21:28N 09°22' W 079°54'0 0.0
2018-Feb-17 20:58N 09°22' W 079°54'0 0.0
2018-Feb-17 20:28N 09°22' W 079°54'0 0.0
2018-Feb-17 19:58N 09°22' W 079°54'0 0.0
2018-Feb-17 19:28N 09°22' W 079°54'0 0.0
2018-Feb-17 18:58N 09°22' W 079°54'0 0.0
2018-Feb-17 18:28N 09°22' W 079°54'0 0.0
2018-Feb-17 17:58N 09°22' W 079°54'0 0.0
2018-Feb-17 17:28N 09°22' W 079°54'0 0.0
2018-Feb-17 16:58N 09°22' W 079°54'0 0.0
2018-Feb-17 16:28N 09°22' W 079°54'0 0.0
2018-Feb-17 15:58N 09°22' W 079°54'0 0.0
2018-Feb-17 15:28N 09°22' W 079°54'0 0.0
2018-Feb-17 14:58N 09°22' W 079°54'0 0.0
2018-Feb-17 14:28N 09°22' W 079°54'0 0.0
2018-Feb-17 13:58N 09°22' W 079°54'0 0.0
2018-Feb-17 13:28N 09°22' W 079°54'1 1.1
2018-Feb-17 13:00N 09°22' W 079°54'611.1
2018-Feb-17 12:30N 09°28' W 079°53'21919.1
2018-Feb-17 01:05N 10°14' W 076°17'420.5
2018-Feb-17 00:55N 10°14' W 076°13'920.2
2018-Feb-17 00:29N 10°16' W 076°05'1020.5
2018-Feb-17 00:00N 10°17' W 075°54'1019.7
2018-Feb-16 23:28N 10°18' W 075°44'1314.4
2018-Feb-16 22:36N 10°22' W 075°32'213.8
2018-Feb-16 22:27N 10°24' W 075°33'1 0.8
2018-Feb-16 21:15N 10°24' W 075°32'0 0.0
2018-Feb-16 14:03N 10°24' W 075°32'0 0.0
2018-Feb-16 12:54N 10°24' W 075°32'0 0.0
2018-Feb-16 12:27N 10°24' W 075°32'0 0.0
2018-Feb-16 12:00N 10°24' W 075°32'1 2.3
2018-Feb-16 11:30N 10°23' W 075°33'81 7.4
2018-Feb-16 00:29N 11°15' W 074°29'16 1.3
2018-Feb-15 12:21N 11°15' W 074°13'17 2.8
2018-Feb-15 06:22N 11°28' W 074°24'718.6
2018-Feb-15 05:59N 11°35' W 074°27'  
2018-Feb-12 01:50N 20°39' W 086°54'617.3
2018-Feb-12 01:31N 20°34' W 086°57'4 6.8
2018-Feb-12 00:57N 20°31' W 086°57'0 0.0
2018-Feb-12 00:27N 20°31' W 086°57'0 0.0
2018-Feb-12 00:00N 20°31' W 086°57'0 0.0
2018-Feb-11 23:30N 20°31' W 086°57'0 0.0
2018-Feb-11 23:00N 20°31' W 086°57'0 0.0
2018-Feb-11 22:30N 20°31' W 086°57'0 0.0
2018-Feb-11 22:00N 20°31' W 086°57'0 0.0
2018-Feb-11 21:30N 20°31' W 086°57'0 0.0
2018-Feb-11 21:00N 20°31' W 086°57'0 0.0
2018-Feb-11 20:30N 20°31' W 086°57'0 0.0
2018-Feb-11 19:57N 20°31' W 086°57'0 0.0
2018-Feb-11 19:30N 20°31' W 086°57'0 0.0
2018-Feb-11 19:00N 20°31' W 086°57'0 0.0
2018-Feb-11 18:30N 20°31' W 086°57'0 0.0
2018-Feb-11 18:00N 20°31' W 086°57'0 0.0
2018-Feb-11 17:27N 20°31' W 086°57'0 0.0
2018-Feb-11 16:57N 20°31' W 086°57'0 0.0
2018-Feb-11 16:30N 20°31' W 086°57'0 0.0
2018-Feb-11 15:57N 20°31' W 086°57'0 0.0
2018-Feb-11 15:30N 20°31' W 086°57'0 0.0
2018-Feb-11 15:00N 20°31' W 086°57'0 0.0
2018-Feb-11 14:30N 20°31' W 086°57'0 0.0
2018-Feb-11 14:00N 20°31' W 086°57'0 0.0
2018-Feb-11 13:30N 20°31' W 086°57'0 0.0
2018-Feb-11 13:00N 20°31' W 086°57'0 0.6
2018-Feb-11 12:30N 20°31' W 086°57'5 9.7
2018-Feb-11 12:01N 20°36' W 086°57'  
Track history (hours):
 
Tides and Currents Weather Stations Pressure Air Temp Water Temp Dewpoint Dewpoint Depression Visibility Wind Speed Wind Dir Waves Ship Positions

Legend Of The Seas

Operator: Royal Caribbean Cruises Ltd

Last reported at 2018-Feb-18 01:25 UTC. Time now 2018-Feb-22 10:46 UTC.
Position N 09°35' W 079°58'.

Type: Passenger vessel. MMSI: 311378000.

Date/timePositionNaut miles runAvg speedWind from/ knotsBaromVisibWave heightAir tempDewpointWater temp
2018-Feb-18 01:25N 09°35' W 079°58'713.8
2018-Feb-18 00:54N 09°29' W 079°55'513.7
2018-Feb-18 00:30N 09°24' W 079°54'2 3.4
2018-Feb-17 23:58N 09°22' W 079°54'0 0.0
2018-Feb-17 23:28N 09°22' W 079°54'0 0.0
2018-Feb-17 22:58N 09°22' W 079°54'0 0.0
2018-Feb-17 22:28N 09°22' W 079°54'0 0.0
2018-Feb-17 21:58N 09°22' W 079°54'0 0.0
2018-Feb-17 21:28N 09°22' W 079°54'0 0.0
2018-Feb-17 20:58N 09°22' W 079°54'0 0.0
2018-Feb-17 20:28N 09°22' W 079°54'0 0.0
2018-Feb-17 19:58N 09°22' W 079°54'0 0.0
2018-Feb-17 19:28N 09°22' W 079°54'0 0.0
2018-Feb-17 18:58N 09°22' W 079°54'0 0.0
2018-Feb-17 18:28N 09°22' W 079°54'0 0.0
2018-Feb-17 17:58N 09°22' W 079°54'0 0.0
2018-Feb-17 17:28N 09°22' W 079°54'0 0.0
2018-Feb-17 16:58N 09°22' W 079°54'0 0.0
2018-Feb-17 16:28N 09°22' W 079°54'0 0.0
2018-Feb-17 15:58N 09°22' W 079°54'0 0.0
2018-Feb-17 15:28N 09°22' W 079°54'0 0.0
2018-Feb-17 14:58N 09°22' W 079°54'0 0.0
2018-Feb-17 14:28N 09°22' W 079°54'0 0.0
2018-Feb-17 13:58N 09°22' W 079°54'0 0.0
2018-Feb-17 13:28N 09°22' W 079°54'1 1.1
2018-Feb-17 13:00N 09°22' W 079°54'611.1
2018-Feb-17 12:30N 09°28' W 079°53'21919.1
2018-Feb-17 01:05N 10°14' W 076°17'420.5
2018-Feb-17 00:55N 10°14' W 076°13'920.2
2018-Feb-17 00:29N 10°16' W 076°05'1020.5
2018-Feb-17 00:00N 10°17' W 075°54'1019.7
2018-Feb-16 23:28N 10°18' W 075°44'1314.4
2018-Feb-16 22:36N 10°22' W 075°32'213.8
2018-Feb-16 22:27N 10°24' W 075°33'1 0.8
2018-Feb-16 21:15N 10°24' W 075°32'0 0.0
2018-Feb-16 14:03N 10°24' W 075°32'0 0.0
2018-Feb-16 12:54N 10°24' W 075°32'0 0.0
2018-Feb-16 12:27N 10°24' W 075°32'0 0.0
2018-Feb-16 12:00N 10°24' W 075°32'1 2.3
2018-Feb-16 11:30N 10°23' W 075°33'81 7.4
2018-Feb-16 00:29N 11°15' W 074°29'16 1.3
2018-Feb-15 12:21N 11°15' W 074°13'17 2.8
2018-Feb-15 06:22N 11°28' W 074°24'718.6
2018-Feb-15 05:59N 11°35' W 074°27'  
2018-Feb-12 01:50N 20°39' W 086°54'617.3
2018-Feb-12 01:31N 20°34' W 086°57'4 6.8
2018-Feb-12 00:57N 20°31' W 086°57'0 0.0
2018-Feb-12 00:27N 20°31' W 086°57'0 0.0
2018-Feb-12 00:00N 20°31' W 086°57'0 0.0
2018-Feb-11 23:30N 20°31' W 086°57'0 0.0
2018-Feb-11 23:00N 20°31' W 086°57'0 0.0
2018-Feb-11 22:30N 20°31' W 086°57'0 0.0
2018-Feb-11 22:00N 20°31' W 086°57'0 0.0
2018-Feb-11 21:30N 20°31' W 086°57'0 0.0
2018-Feb-11 21:00N 20°31' W 086°57'0 0.0
2018-Feb-11 20:30N 20°31' W 086°57'0 0.0
2018-Feb-11 19:57N 20°31' W 086°57'0 0.0
2018-Feb-11 19:30N 20°31' W 086°57'0 0.0
2018-Feb-11 19:00N 20°31' W 086°57'0 0.0
2018-Feb-11 18:30N 20°31' W 086°57'0 0.0
2018-Feb-11 18:00N 20°31' W 086°57'0 0.0
2018-Feb-11 17:27N 20°31' W 086°57'0 0.0
2018-Feb-11 16:57N 20°31' W 086°57'0 0.0
2018-Feb-11 16:30N 20°31' W 086°57'0 0.0
2018-Feb-11 15:57N 20°31' W 086°57'0 0.0
2018-Feb-11 15:30N 20°31' W 086°57'0 0.0
2018-Feb-11 15:00N 20°31' W 086°57'0 0.0
2018-Feb-11 14:30N 20°31' W 086°57'0 0.0
2018-Feb-11 14:00N 20°31' W 086°57'0 0.0
2018-Feb-11 13:30N 20°31' W 086°57'0 0.0
2018-Feb-11 13:00N 20°31' W 086°57'0 0.6
2018-Feb-11 12:30N 20°31' W 086°57'5 9.7
2018-Feb-11 12:01N 20°36' W 086°57'  

Dump ship's entire track history